sensor_id;sensor_type;location;lat;lon;timestamp;P1;durP1;ratioP1;P2;durP2;ratioP2
9783;SDS011;4931;44.874;-1.092;2022-09-06T00:03:34;11.32;;;6.20;;
9783;SDS011;4931;44.874;-1.092;2022-09-06T00:08:19;15.75;;;8.15;;
9783;SDS011;4931;44.874;-1.092;2022-09-06T00:13:08;10.93;;;6.25;;
9783;SDS011;4931;44.874;-1.092;2022-09-06T00:17:56;11.45;;;5.95;;
9783;SDS011;4931;44.874;-1.092;2022-09-06T00:22:42;9.57;;;5.72;;
9783;SDS011;4931;44.874;-1.092;2022-09-06T00:27:27;11.35;;;6.22;;
9783;SDS011;4931;44.874;-1.092;2022-09-06T00:32:15;13.50;;;6.47;;
9783;SDS011;4931;44.874;-1.092;2022-09-06T00:37:00;12.45;;;6.00;;
9783;SDS011;4931;44.874;-1.092;2022-09-06T00:41:45;8.68;;;5.97;;
9783;SDS011;4931;44.874;-1.092;2022-09-06T00:46:31;10.10;;;6.70;;
9783;SDS011;4931;44.874;-1.092;2022-09-06T00:51:20;11.65;;;6.13;;
9783;SDS011;4931;44.874;-1.092;2022-09-06T00:56:07;9.70;;;6.43;;
9783;SDS011;4931;44.874;-1.092;2022-09-06T01:00:52;14.30;;;7.38;;
9783;SDS011;4931;44.874;-1.092;2022-09-06T01:05:41;12.02;;;6.38;;
9783;SDS011;4931;44.874;-1.092;2022-09-06T01:10:41;8.90;;;6.35;;
9783;SDS011;4931;44.874;-1.092;2022-09-06T01:15:40;11.02;;;6.38;;
9783;SDS011;4931;44.874;-1.092;2022-09-06T01:20:39;10.35;;;6.68;;
9783;SDS011;4931;44.874;-1.092;2022-09-06T01:25:33;13.25;;;6.68;;
9783;SDS011;4931;44.874;-1.092;2022-09-06T01:30:25;14.43;;;6.75;;
9783;SDS011;4931;44.874;-1.092;2022-09-06T01:35:13;10.43;;;6.28;;
9783;SDS011;4931;44.874;-1.092;2022-09-06T01:40:04;8.77;;;6.50;;
9783;SDS011;4931;44.874;-1.092;2022-09-06T01:44:51;11.48;;;6.47;;
9783;SDS011;4931;44.874;-1.092;2022-09-06T01:49:45;10.25;;;7.00;;
9783;SDS011;4931;44.874;-1.092;2022-09-06T01:54:45;14.57;;;6.87;;
9783;SDS011;4931;44.874;-1.092;2022-09-06T01:59:54;13.00;;;6.63;;
9783;SDS011;4931;44.874;-1.092;2022-09-06T02:04:52;11.68;;;6.80;;
9783;SDS011;4931;44.874;-1.092;2022-09-06T02:09:46;13.20;;;7.00;;
9783;SDS011;4931;44.874;-1.092;2022-09-06T02:14:37;12.98;;;7.43;;
9783;SDS011;4931;44.874;-1.092;2022-09-06T02:19:28;11.50;;;6.30;;
9783;SDS011;4931;44.874;-1.092;2022-09-06T02:24:22;10.77;;;6.43;;
9783;SDS011;4931;44.874;-1.092;2022-09-06T02:29:12;13.10;;;6.80;;
9783;SDS011;4931;44.874;-1.092;2022-09-06T02:33:59;10.77;;;6.88;;
9783;SDS011;4931;44.874;-1.092;2022-09-06T02:38:44;12.98;;;6.90;;
9783;SDS011;4931;44.874;-1.092;2022-09-06T02:43:33;9.60;;;6.97;;
9783;SDS011;4931;44.874;-1.092;2022-09-06T02:48:19;11.05;;;6.88;;
9783;SDS011;4931;44.874;-1.092;2022-09-06T02:53:05;12.00;;;6.43;;
9783;SDS011;4931;44.874;-1.092;2022-09-06T02:57:51;12.18;;;6.75;;
9783;SDS011;4931;44.874;-1.092;2022-09-06T03:02:39;10.50;;;6.30;;
9783;SDS011;4931;44.874;-1.092;2022-09-06T03:07:24;9.05;;;6.07;;
9783;SDS011;4931;44.874;-1.092;2022-09-06T03:12:09;12.27;;;6.70;;
9783;SDS011;4931;44.874;-1.092;2022-09-06T03:16:54;13.32;;;6.70;;
9783;SDS011;4931;44.874;-1.092;2022-09-06T03:21:43;11.18;;;6.60;;
9783;SDS011;4931;44.874;-1.092;2022-09-06T03:26:28;10.68;;;7.13;;
9783;SDS011;4931;44.874;-1.092;2022-09-06T03:31:13;9.48;;;6.60;;
9783;SDS011;4931;44.874;-1.092;2022-09-06T03:35:59;12.57;;;6.35;;
9783;SDS011;4931;44.874;-1.092;2022-09-06T03:40:49;10.90;;;6.40;;
9783;SDS011;4931;44.874;-1.092;2022-09-06T03:45:34;11.23;;;7.13;;
9783;SDS011;4931;44.874;-1.092;2022-09-06T03:50:20;18.05;;;12.10;;
9783;SDS011;4931;44.874;-1.092;2022-09-06T03:55:05;8.90;;;6.13;;
9783;SDS011;4931;44.874;-1.092;2022-09-06T03:59:55;10.10;;;6.30;;
9783;SDS011;4931;44.874;-1.092;2022-09-06T04:04:40;10.60;;;6.28;;
9783;SDS011;4931;44.874;-1.092;2022-09-06T04:09:25;12.68;;;6.47;;
9783;SDS011;4931;44.874;-1.092;2022-09-06T04:14:11;11.52;;;6.28;;
9783;SDS011;4931;44.874;-1.092;2022-09-06T04:18:59;10.18;;;6.35;;
9783;SDS011;4931;44.874;-1.092;2022-09-06T04:23:44;9.68;;;6.18;;
9783;SDS011;4931;44.874;-1.092;2022-09-06T04:28:30;10.30;;;6.70;;
9783;SDS011;4931;44.874;-1.092;2022-09-06T04:33:15;10.23;;;6.30;;
9783;SDS011;4931;44.874;-1.092;2022-09-06T04:38:03;11.27;;;6.57;;
9783;SDS011;4931;44.874;-1.092;2022-09-06T04:42:48;13.75;;;7.32;;
9783;SDS011;4931;44.874;-1.092;2022-09-06T04:47:33;11.00;;;6.90;;
9783;SDS011;4931;44.874;-1.092;2022-09-06T04:52:19;14.00;;;6.82;;
9783;SDS011;4931;44.874;-1.092;2022-09-06T04:57:13;10.48;;;7.10;;
9783;SDS011;4931;44.874;-1.092;2022-09-06T05:01:58;12.85;;;7.10;;
9783;SDS011;4931;44.874;-1.092;2022-09-06T05:06:43;10.07;;;6.78;;
9783;SDS011;4931;44.874;-1.092;2022-09-06T05:11:28;11.05;;;6.55;;
9783;SDS011;4931;44.874;-1.092;2022-09-06T05:16:16;11.75;;;6.68;;
9783;SDS011;4931;44.874;-1.092;2022-09-06T05:21:02;8.48;;;6.55;;
9783;SDS011;4931;44.874;-1.092;2022-09-06T05:25:48;10.27;;;7.00;;
9783;SDS011;4931;44.874;-1.092;2022-09-06T05:30:33;10.77;;;6.55;;
9783;SDS011;4931;44.874;-1.092;2022-09-06T05:35:21;11.18;;;6.85;;
9783;SDS011;4931;44.874;-1.092;2022-09-06T05:40:07;11.00;;;7.07;;
9783;SDS011;4931;44.874;-1.092;2022-09-06T05:44:53;11.70;;;6.20;;
9783;SDS011;4931;44.874;-1.092;2022-09-06T05:49:38;17.00;;;7.40;;
9783;SDS011;4931;44.874;-1.092;2022-09-06T05:54:26;17.63;;;7.63;;
9783;SDS011;4931;44.874;-1.092;2022-09-06T05:59:12;35.35;;;8.98;;
9783;SDS011;4931;44.874;-1.092;2022-09-06T06:03:57;10.55;;;6.93;;
9783;SDS011;4931;44.874;-1.092;2022-09-06T06:08:44;14.05;;;6.32;;
9783;SDS011;4931;44.874;-1.092;2022-09-06T06:13:32;15.48;;;6.60;;
9783;SDS011;4931;44.874;-1.092;2022-09-06T06:18:20;12.98;;;6.55;;
9783;SDS011;4931;44.874;-1.092;2022-09-06T06:23:05;13.23;;;6.80;;
9783;SDS011;4931;44.874;-1.092;2022-09-06T06:27:50;12.63;;;6.85;;
9783;SDS011;4931;44.874;-1.092;2022-09-06T06:32:38;13.07;;;7.32;;
9783;SDS011;4931;44.874;-1.092;2022-09-06T06:37:24;15.13;;;7.07;;
9783;SDS011;4931;44.874;-1.092;2022-09-06T06:42:09;12.82;;;7.55;;
9783;SDS011;4931;44.874;-1.092;2022-09-06T06:46:56;15.18;;;7.82;;
9783;SDS011;4931;44.874;-1.092;2022-09-06T06:51:46;14.38;;;7.55;;
9783;SDS011;4931;44.874;-1.092;2022-09-06T06:56:32;12.20;;;7.40;;
9783;SDS011;4931;44.874;-1.092;2022-09-06T07:01:19;12.77;;;7.22;;
9783;SDS011;4931;44.874;-1.092;2022-09-06T07:06:06;12.75;;;7.60;;
9783;SDS011;4931;44.874;-1.092;2022-09-06T07:10:56;11.52;;;7.32;;
9783;SDS011;4931;44.874;-1.092;2022-09-06T07:15:41;11.70;;;6.70;;
9783;SDS011;4931;44.874;-1.092;2022-09-06T07:20:26;13.88;;;6.57;;
9783;SDS011;4931;44.874;-1.092;2022-09-06T07:25:12;12.07;;;5.60;;
9783;SDS011;4931;44.874;-1.092;2022-09-06T07:30:05;10.27;;;5.00;;
9783;SDS011;4931;44.874;-1.092;2022-09-06T07:34:51;10.68;;;4.90;;
9783;SDS011;4931;44.874;-1.092;2022-09-06T07:39:37;12.65;;;5.35;;
9783;SDS011;4931;44.874;-1.092;2022-09-06T07:44:22;8.23;;;4.70;;
9783;SDS011;4931;44.874;-1.092;2022-09-06T07:49:12;12.52;;;5.07;;
9783;SDS011;4931;44.874;-1.092;2022-09-06T07:53:57;13.02;;;5.20;;
9783;SDS011;4931;44.874;-1.092;2022-09-06T07:59:03;10.25;;;4.60;;
9783;SDS011;4931;44.874;-1.092;2022-09-06T08:03:48;7.30;;;4.68;;
9783;SDS011;4931;44.874;-1.092;2022-09-06T08:08:36;13.60;;;4.60;;
9783;SDS011;4931;44.874;-1.092;2022-09-06T08:13:37;7.72;;;4.45;;
9783;SDS011;4931;44.874;-1.092;2022-09-06T08:18:22;7.03;;;3.83;;
9783;SDS011;4931;44.874;-1.092;2022-09-06T08:23:08;5.95;;;3.80;;
9783;SDS011;4931;44.874;-1.092;2022-09-06T08:27:56;7.05;;;3.40;;
9783;SDS011;4931;44.874;-1.092;2022-09-06T08:32:41;4.85;;;2.65;;
9783;SDS011;4931;44.874;-1.092;2022-09-06T08:37:27;6.40;;;2.90;;
9783;SDS011;4931;44.874;-1.092;2022-09-06T08:42:12;8.43;;;3.40;;
9783;SDS011;4931;44.874;-1.092;2022-09-06T08:47:01;5.70;;;2.88;;
9783;SDS011;4931;44.874;-1.092;2022-09-06T08:51:53;6.72;;;3.10;;
9783;SDS011;4931;44.874;-1.092;2022-09-06T08:56:55;5.43;;;3.10;;
9783;SDS011;4931;44.874;-1.092;2022-09-06T09:01:55;8.88;;;3.00;;
9783;SDS011;4931;44.874;-1.092;2022-09-06T09:06:50;8.32;;;3.13;;
9783;SDS011;4931;44.874;-1.092;2022-09-06T09:11:42;8.05;;;3.40;;
9783;SDS011;4931;44.874;-1.092;2022-09-06T09:16:31;7.05;;;3.00;;
9783;SDS011;4931;44.874;-1.092;2022-09-06T09:21:20;5.75;;;2.90;;
9783;SDS011;4931;44.874;-1.092;2022-09-06T09:26:11;8.88;;;3.20;;
9783;SDS011;4931;44.874;-1.092;2022-09-06T09:30:58;7.25;;;3.03;;
9783;SDS011;4931;44.874;-1.092;2022-09-06T09:35:44;7.75;;;3.20;;
9783;SDS011;4931;44.874;-1.092;2022-09-06T09:40:34;6.80;;;3.30;;
9783;SDS011;4931;44.874;-1.092;2022-09-06T09:45:25;10.05;;;3.42;;
9783;SDS011;4931;44.874;-1.092;2022-09-06T09:50:20;8.23;;;3.78;;
9783;SDS011;4931;44.874;-1.092;2022-09-06T09:55:07;12.90;;;3.85;;
9783;SDS011;4931;44.874;-1.092;2022-09-06T09:59:57;9.55;;;3.65;;
9783;SDS011;4931;44.874;-1.092;2022-09-06T10:04:48;11.35;;;3.92;;
9783;SDS011;4931;44.874;-1.092;2022-09-06T10:09:36;10.65;;;3.65;;
9783;SDS011;4931;44.874;-1.092;2022-09-06T10:14:28;8.55;;;3.60;;
9783;SDS011;4931;44.874;-1.092;2022-09-06T10:19:31;10.13;;;3.60;;
9783;SDS011;4931;44.874;-1.092;2022-09-06T10:24:23;12.52;;;3.60;;
9783;SDS011;4931;44.874;-1.092;2022-09-06T10:29:13;8.45;;;3.30;;
9783;SDS011;4931;44.874;-1.092;2022-09-06T10:39:32;14.10;;;3.65;;
9783;SDS011;4931;44.874;-1.092;2022-09-06T10:44:29;8.88;;;3.72;;
9783;SDS011;4931;44.874;-1.092;2022-09-06T10:49:30;8.32;;;3.00;;
9783;SDS011;4931;44.874;-1.092;2022-09-06T10:54:19;6.95;;;3.40;;
9783;SDS011;4931;44.874;-1.092;2022-09-06T10:59:09;6.53;;;2.92;;
9783;SDS011;4931;44.874;-1.092;2022-09-06T11:04:19;6.03;;;3.17;;
9783;SDS011;4931;44.874;-1.092;2022-09-06T11:09:13;9.48;;;3.65;;
9783;SDS011;4931;44.874;-1.092;2022-09-06T11:14:10;8.70;;;4.30;;
9783;SDS011;4931;44.874;-1.092;2022-09-06T11:18:57;7.28;;;2.58;;
9783;SDS011;4931;44.874;-1.092;2022-09-06T11:23:47;6.67;;;2.57;;
9783;SDS011;4931;44.874;-1.092;2022-09-06T11:28:35;7.55;;;2.80;;
9783;SDS011;4931;44.874;-1.092;2022-09-06T11:33:29;8.98;;;3.20;;
9783;SDS011;4931;44.874;-1.092;2022-09-06T11:38:22;6.57;;;2.88;;
9783;SDS011;4931;44.874;-1.092;2022-09-06T11:43:14;5.13;;;2.13;;
9783;SDS011;4931;44.874;-1.092;2022-09-06T11:53:18;6.25;;;1.55;;
9783;SDS011;4931;44.874;-1.092;2022-09-06T11:58:07;5.63;;;1.58;;
9783;SDS011;4931;44.874;-1.092;2022-09-06T12:03:06;4.55;;;1.58;;
9783;SDS011;4931;44.874;-1.092;2022-09-06T12:23:42;4.00;;;1.77;;
9783;SDS011;4931;44.874;-1.092;2022-09-06T12:28:34;5.22;;;2.00;;
9783;SDS011;4931;44.874;-1.092;2022-09-06T12:33:29;5.35;;;2.03;;
9783;SDS011;4931;44.874;-1.092;2022-09-06T12:38:20;4.35;;;2.28;;
9783;SDS011;4931;44.874;-1.092;2022-09-06T12:48:04;3.45;;;2.03;;
9783;SDS011;4931;44.874;-1.092;2022-09-06T12:52:52;5.78;;;2.60;;
9783;SDS011;4931;44.874;-1.092;2022-09-06T12:57:38;4.53;;;2.25;;
9783;SDS011;4931;44.874;-1.092;2022-09-06T13:02:35;5.82;;;2.42;;
9783;SDS011;4931;44.874;-1.092;2022-09-06T13:07:24;6.22;;;2.30;;
9783;SDS011;4931;44.874;-1.092;2022-09-06T13:12:14;6.13;;;2.53;;
9783;SDS011;4931;44.874;-1.092;2022-09-06T13:17:06;5.32;;;2.47;;
9783;SDS011;4931;44.874;-1.092;2022-09-06T13:21:55;4.38;;;2.70;;
9783;SDS011;4931;44.874;-1.092;2022-09-06T13:26:40;4.53;;;2.40;;
9783;SDS011;4931;44.874;-1.092;2022-09-06T13:31:26;5.32;;;2.83;;
9783;SDS011;4931;44.874;-1.092;2022-09-06T13:36:17;4.78;;;2.63;;
9783;SDS011;4931;44.874;-1.092;2022-09-06T13:41:31;5.25;;;2.30;;
9783;SDS011;4931;44.874;-1.092;2022-09-06T13:46:26;4.38;;;2.50;;
9783;SDS011;4931;44.874;-1.092;2022-09-06T13:51:11;5.63;;;2.47;;
9783;SDS011;4931;44.874;-1.092;2022-09-06T13:55:57;8.40;;;2.50;;
9783;SDS011;4931;44.874;-1.092;2022-09-06T14:00:45;5.68;;;2.70;;
9783;SDS011;4931;44.874;-1.092;2022-09-06T14:05:30;5.10;;;2.60;;
9783;SDS011;4931;44.874;-1.092;2022-09-06T14:10:19;10.90;;;2.90;;
9783;SDS011;4931;44.874;-1.092;2022-09-06T14:15:06;5.10;;;2.80;;
9783;SDS011;4931;44.874;-1.092;2022-09-06T14:19:54;9.40;;;2.35;;
9783;SDS011;4931;44.874;-1.092;2022-09-06T14:24:39;7.55;;;2.70;;
9783;SDS011;4931;44.874;-1.092;2022-09-06T14:29:24;6.88;;;2.30;;
9783;SDS011;4931;44.874;-1.092;2022-09-06T14:34:10;11.02;;;2.30;;
9783;SDS011;4931;44.874;-1.092;2022-09-06T14:38:58;9.70;;;2.30;;
9783;SDS011;4931;44.874;-1.092;2022-09-06T14:43:46;6.35;;;2.17;;
9783;SDS011;4931;44.874;-1.092;2022-09-06T14:48:33;6.22;;;1.85;;
9783;SDS011;4931;44.874;-1.092;2022-09-06T14:53:23;6.85;;;2.42;;
9783;SDS011;4931;44.874;-1.092;2022-09-06T14:58:23;13.77;;;2.70;;
9783;SDS011;4931;44.874;-1.092;2022-09-06T15:03:09;7.63;;;2.60;;
9783;SDS011;4931;44.874;-1.092;2022-09-06T15:07:54;10.35;;;2.60;;
9783;SDS011;4931;44.874;-1.092;2022-09-06T15:12:39;7.15;;;2.28;;
9783;SDS011;4931;44.874;-1.092;2022-09-06T15:17:27;12.60;;;3.17;;
9783;SDS011;4931;44.874;-1.092;2022-09-06T15:22:15;7.15;;;2.40;;
9783;SDS011;4931;44.874;-1.092;2022-09-06T15:27:10;8.98;;;2.60;;
9783;SDS011;4931;44.874;-1.092;2022-09-06T15:32:07;18.98;;;7.72;;
9783;SDS011;4931;44.874;-1.092;2022-09-06T15:36:55;10.32;;;2.70;;
9783;SDS011;4931;44.874;-1.092;2022-09-06T15:41:40;10.35;;;2.83;;
9783;SDS011;4931;44.874;-1.092;2022-09-06T15:46:39;10.55;;;3.20;;
9783;SDS011;4931;44.874;-1.092;2022-09-06T15:51:26;10.25;;;2.65;;
9783;SDS011;4931;44.874;-1.092;2022-09-06T15:56:15;10.45;;;2.70;;
9783;SDS011;4931;44.874;-1.092;2022-09-06T16:01:03;7.40;;;2.28;;
9783;SDS011;4931;44.874;-1.092;2022-09-06T16:05:51;6.15;;;2.60;;
9783;SDS011;4931;44.874;-1.092;2022-09-06T16:10:57;7.97;;;2.67;;
9783;SDS011;4931;44.874;-1.092;2022-09-06T16:15:56;13.32;;;2.90;;
9783;SDS011;4931;44.874;-1.092;2022-09-06T16:20:44;12.45;;;2.72;;
9783;SDS011;4931;44.874;-1.092;2022-09-06T16:25:30;9.60;;;3.50;;
9783;SDS011;4931;44.874;-1.092;2022-09-06T16:30:17;10.18;;;2.40;;
9783;SDS011;4931;44.874;-1.092;2022-09-06T16:35:08;14.32;;;2.40;;
9783;SDS011;4931;44.874;-1.092;2022-09-06T16:39:54;9.97;;;2.40;;
9783;SDS011;4931;44.874;-1.092;2022-09-06T16:44:42;9.88;;;2.38;;
9783;SDS011;4931;44.874;-1.092;2022-09-06T16:49:29;14.00;;;2.35;;
9783;SDS011;4931;44.874;-1.092;2022-09-06T16:54:18;7.78;;;2.35;;
9783;SDS011;4931;44.874;-1.092;2022-09-06T16:59:06;8.67;;;2.27;;
9783;SDS011;4931;44.874;-1.092;2022-09-06T17:03:53;8.88;;;2.03;;
9783;SDS011;4931;44.874;-1.092;2022-09-06T17:08:40;7.93;;;1.80;;
9783;SDS011;4931;44.874;-1.092;2022-09-06T17:13:30;8.73;;;2.00;;
9783;SDS011;4931;44.874;-1.092;2022-09-06T17:18:19;7.35;;;1.35;;
9783;SDS011;4931;44.874;-1.092;2022-09-06T17:23:11;6.45;;;1.55;;
9783;SDS011;4931;44.874;-1.092;2022-09-06T17:28:01;6.40;;;1.38;;
9783;SDS011;4931;44.874;-1.092;2022-09-06T17:32:50;5.38;;;1.50;;
9783;SDS011;4931;44.874;-1.092;2022-09-06T17:37:37;6.93;;;1.88;;
9783;SDS011;4931;44.874;-1.092;2022-09-06T17:42:25;7.57;;;1.55;;
9783;SDS011;4931;44.874;-1.092;2022-09-06T17:47:11;5.43;;;1.60;;
9783;SDS011;4931;44.874;-1.092;2022-09-06T17:52:02;5.85;;;1.40;;
9783;SDS011;4931;44.874;-1.092;2022-09-06T17:56:49;10.93;;;2.30;;
9783;SDS011;4931;44.874;-1.092;2022-09-06T18:01:36;8.32;;;2.08;;
9783;SDS011;4931;44.874;-1.092;2022-09-06T18:06:24;8.40;;;1.85;;
9783;SDS011;4931;44.874;-1.092;2022-09-06T18:11:15;9.27;;;2.10;;
9783;SDS011;4931;44.874;-1.092;2022-09-06T18:16:03;6.10;;;1.48;;
9783;SDS011;4931;44.874;-1.092;2022-09-06T18:20:50;6.35;;;1.42;;
9783;SDS011;4931;44.874;-1.092;2022-09-06T18:25:37;7.97;;;1.98;;
9783;SDS011;4931;44.874;-1.092;2022-09-06T18:30:26;8.85;;;2.00;;
9783;SDS011;4931;44.874;-1.092;2022-09-06T18:35:14;8.07;;;1.93;;
9783;SDS011;4931;44.874;-1.092;2022-09-06T18:40:02;15.63;;;1.95;;
9783;SDS011;4931;44.874;-1.092;2022-09-06T18:44:52;7.43;;;1.50;;
9783;SDS011;4931;44.874;-1.092;2022-09-06T18:49:42;6.25;;;1.30;;
9783;SDS011;4931;44.874;-1.092;2022-09-06T18:54:30;7.13;;;1.87;;
9783;SDS011;4931;44.874;-1.092;2022-09-06T18:59:19;10.23;;;1.80;;
9783;SDS011;4931;44.874;-1.092;2022-09-06T19:04:09;9.50;;;1.80;;
9783;SDS011;4931;44.874;-1.092;2022-09-06T19:09:01;7.07;;;1.58;;
9783;SDS011;4931;44.874;-1.092;2022-09-06T19:13:52;9.10;;;2.10;;
9783;SDS011;4931;44.874;-1.092;2022-09-06T19:18:40;9.55;;;1.77;;
9783;SDS011;4931;44.874;-1.092;2022-09-06T19:23:28;7.60;;;1.67;;
9783;SDS011;4931;44.874;-1.092;2022-09-06T19:28:21;8.77;;;2.33;;
9783;SDS011;4931;44.874;-1.092;2022-09-06T19:33:08;10.00;;;2.13;;
9783;SDS011;4931;44.874;-1.092;2022-09-06T19:37:55;8.90;;;1.70;;
9783;SDS011;4931;44.874;-1.092;2022-09-06T19:42:42;9.32;;;1.63;;
9783;SDS011;4931;44.874;-1.092;2022-09-06T19:47:29;9.25;;;2.13;;
9783;SDS011;4931;44.874;-1.092;2022-09-06T19:52:15;9.88;;;1.77;;
9783;SDS011;4931;44.874;-1.092;2022-09-06T19:57:00;7.65;;;2.30;;
9783;SDS011;4931;44.874;-1.092;2022-09-06T20:01:46;10.02;;;1.88;;
9783;SDS011;4931;44.874;-1.092;2022-09-06T20:06:34;6.45;;;1.63;;
9783;SDS011;4931;44.874;-1.092;2022-09-06T20:11:20;11.65;;;1.73;;
9783;SDS011;4931;44.874;-1.092;2022-09-06T20:16:07;6.25;;;1.90;;
9783;SDS011;4931;44.874;-1.092;2022-09-06T20:20:54;9.70;;;2.30;;
9783;SDS011;4931;44.874;-1.092;2022-09-06T20:25:44;8.95;;;2.50;;
9783;SDS011;4931;44.874;-1.092;2022-09-06T20:30:29;11.60;;;1.95;;
9783;SDS011;4931;44.874;-1.092;2022-09-06T20:35:15;7.03;;;2.10;;
9783;SDS011;4931;44.874;-1.092;2022-09-06T20:40:00;9.90;;;2.00;;
9783;SDS011;4931;44.874;-1.092;2022-09-06T20:44:49;8.68;;;2.13;;
9783;SDS011;4931;44.874;-1.092;2022-09-06T20:49:34;9.60;;;2.25;;
9783;SDS011;4931;44.874;-1.092;2022-09-06T20:54:19;7.45;;;2.00;;
9783;SDS011;4931;44.874;-1.092;2022-09-06T20:59:06;9.35;;;2.03;;
9783;SDS011;4931;44.874;-1.092;2022-09-06T21:03:56;10.93;;;2.55;;
9783;SDS011;4931;44.874;-1.092;2022-09-06T21:08:43;9.23;;;2.40;;
9783;SDS011;4931;44.874;-1.092;2022-09-06T21:13:28;7.50;;;2.47;;
9783;SDS011;4931;44.874;-1.092;2022-09-06T21:18:14;7.75;;;2.20;;
9783;SDS011;4931;44.874;-1.092;2022-09-06T21:23:02;10.23;;;2.65;;
9783;SDS011;4931;44.874;-1.092;2022-09-06T21:27:48;10.88;;;2.70;;
9783;SDS011;4931;44.874;-1.092;2022-09-06T21:32:36;8.90;;;2.40;;
9783;SDS011;4931;44.874;-1.092;2022-09-06T21:37:21;9.00;;;2.28;;
9783;SDS011;4931;44.874;-1.092;2022-09-06T21:42:09;9.27;;;2.33;;
9783;SDS011;4931;44.874;-1.092;2022-09-06T21:46:55;6.35;;;2.15;;
9783;SDS011;4931;44.874;-1.092;2022-09-06T21:51:42;9.25;;;2.60;;
9783;SDS011;4931;44.874;-1.092;2022-09-06T21:56:27;11.57;;;2.90;;
9783;SDS011;4931;44.874;-1.092;2022-09-06T22:01:15;10.10;;;2.20;;
9783;SDS011;4931;44.874;-1.092;2022-09-06T22:06:06;8.10;;;2.60;;
9783;SDS011;4931;44.874;-1.092;2022-09-06T22:10:52;8.77;;;2.50;;
9783;SDS011;4931;44.874;-1.092;2022-09-06T22:15:37;9.05;;;2.53;;
9783;SDS011;4931;44.874;-1.092;2022-09-06T22:20:26;7.70;;;2.58;;
9783;SDS011;4931;44.874;-1.092;2022-09-06T22:25:11;11.52;;;2.78;;
9783;SDS011;4931;44.874;-1.092;2022-09-06T22:29:57;10.77;;;2.60;;
9783;SDS011;4931;44.874;-1.092;2022-09-06T22:34:43;9.63;;;2.70;;
9783;SDS011;4931;44.874;-1.092;2022-09-06T22:39:32;10.10;;;2.70;;
9783;SDS011;4931;44.874;-1.092;2022-09-06T22:44:18;8.88;;;2.72;;
9783;SDS011;4931;44.874;-1.092;2022-09-06T22:49:06;10.38;;;2.70;;
9783;SDS011;4931;44.874;-1.092;2022-09-06T22:53:52;8.65;;;2.70;;
9783;SDS011;4931;44.874;-1.092;2022-09-06T22:58:40;12.55;;;2.65;;
9783;SDS011;4931;44.874;-1.092;2022-09-06T23:03:26;12.50;;;2.80;;
9783;SDS011;4931;44.874;-1.092;2022-09-06T23:08:12;8.82;;;2.83;;
9783;SDS011;4931;44.874;-1.092;2022-09-06T23:12:59;7.15;;;2.60;;
9783;SDS011;4931;44.874;-1.092;2022-09-06T23:17:47;9.68;;;2.85;;
9783;SDS011;4931;44.874;-1.092;2022-09-06T23:22:33;8.95;;;2.55;;
9783;SDS011;4931;44.874;-1.092;2022-09-06T23:27:19;7.45;;;2.88;;
9783;SDS011;4931;44.874;-1.092;2022-09-06T23:32:05;8.68;;;2.83;;
9783;SDS011;4931;44.874;-1.092;2022-09-06T23:36:53;8.60;;;2.78;;
9783;SDS011;4931;44.874;-1.092;2022-09-06T23:41:44;10.77;;;3.42;;
9783;SDS011;4931;44.874;-1.092;2022-09-06T23:46:29;9.38;;;2.70;;
9783;SDS011;4931;44.874;-1.092;2022-09-06T23:51:16;8.63;;;2.53;;
9783;SDS011;4931;44.874;-1.092;2022-09-06T23:56:04;12.70;;;3.40;;
